Tallinn, Estland

02:02 AM EEST on September 25, 2017 (GMT +0300)
IHARJUMA9 | | Change Station

Elev 109 ft 59.43 °N, 24.94 °E | Updated 2 minutes ago

Klart
Klart
46.8 °F
Feels Like 47 °F
N
0.0
Vind Växlande Vind from SO
Gusts 2.0 miles/tim

Idag
High -- | Low -- °F
--% Chance of Precip.
Yesterday
High -- | Low -- °F
Precip. -- tum
Lufttryck 30.63 tum
Sikt -9999.0 miles
Molnigt
Vindavkylning 47 °F
Daggpunkt 37 °F
Luftfuktighet 70%
Rainfall 0.00 tum
Snow Depth Not available.
7:11 AM 7:10 PM
Första kvarteret, 22% visible
METAR EETN 242250Z 10006KT CAVOK 08/08 Q1037
Lufttryck 30.63 tum
Sikt -9999.0 miles
Molnigt
Vindavkylning 47 °F
Daggpunkt 37 °F
Luftfuktighet 70%
Rainfall 0.00 tum
Snow Depth Not available.
7:11 AM 7:10 PM
Första kvarteret, 22% visible
METAR EETN 242250Z 10006KT CAVOK 08/08 Q1037

Get Severe Weather Alerts

Thanks for signing up!

Be on the lookout for a verification email in your inbox.

You'll start receiving the daily forecast at 6 AM.

×

10-Day Weather Forecast

×

Almanac

Astronomi

Sep. 25, 2017 Rise Set
Actual Time
Civil Twilight
Nautical Twilight
Astronomical Twilight
Månen
Length Of Visible Light
Dagens längd
Tomorrow will be .
, % of the Moon is Illuminated

Today's Extremes

Country Highs Country Lows

Community

WunderPhotos

Category 6

Welcome to Category 6. This is the collective home for Weather Underground's featured writeups by Dr. Jeff Masters (right), Bob Henson (left), Chris Burt, and other regular contributors.

Nearby

Air Quality

  Air Quality AQ Index Pollutant
Not available.

Snödjup

Station Depth Elevation

Earthquake Activity

Stad Distance Mag. Time & Date
Minimum magnitude displayed is 2.5.

Coastal Water Temperatures

Plats Temperatur

Stations

Nearby Weather Stations

Station Location Temp Vindavkylning Daggpunkt Luftfuktighet Vind Precip. Elev Uppdaterad Type